createdAt,value
2023-03-20T00:01:34.180Z,38.04
2023-03-20T00:04:07.537Z,38.32
2023-03-20T00:06:43.051Z,38.69
2023-03-20T00:09:16.033Z,38.92
2023-03-20T00:11:52.811Z,39.06
2023-03-20T00:14:27.274Z,39.28
2023-03-20T00:17:00.374Z,39.54
2023-03-20T00:19:33.463Z,39.99
2023-03-20T00:22:06.660Z,39.80
2023-03-20T00:24:39.742Z,39.70
2023-03-20T00:27:15.093Z,39.59
2023-03-20T00:29:48.161Z,39.33
2023-03-20T00:32:21.408Z,38.76
2023-03-20T00:34:54.466Z,38.37
2023-03-20T00:37:29.111Z,38.13
2023-03-20T00:40:03.249Z,38.04
2023-03-20T00:42:36.410Z,37.99
2023-03-20T00:45:16.228Z,38.14
2023-03-20T00:47:54.196Z,38.62
2023-03-20T00:50:29.898Z,38.02
2023-03-20T00:53:03.454Z,38.02
2023-03-20T00:55:36.849Z,38.13
2023-03-20T00:58:14.425Z,38.27
2023-03-20T01:00:48.031Z,38.22
2023-03-20T01:03:23.008Z,38.44
2023-03-20T01:05:57.582Z,38.53
2023-03-20T01:08:30.697Z,38.75
2023-03-20T01:11:03.666Z,39.19
2023-03-20T01:13:38.149Z,39.88
2023-03-20T01:16:21.393Z,40.11
2023-03-20T01:18:54.954Z,40.19
2023-03-20T01:21:27.870Z,40.23
2023-03-20T01:24:00.818Z,40.03
2023-03-20T01:26:38.264Z,40.02
2023-03-20T01:29:22.511Z,39.98
2023-03-20T01:31:56.568Z,39.55
2023-03-20T01:34:31.177Z,39.48
2023-03-20T01:37:04.532Z,39.26
2023-03-20T01:39:39.888Z,39.17
2023-03-20T01:42:17.337Z,39.18
2023-03-20T01:44:50.450Z,39.42
2023-03-20T01:47:26.288Z,39.25
2023-03-20T01:50:35.354Z,39.50
2023-03-20T01:53:21.861Z,39.92
2023-03-20T01:58:42.650Z,39.91
2023-03-20T02:01:16.898Z,40.31
2023-03-20T02:03:52.752Z,40.01
2023-03-20T02:06:30.181Z,39.79
2023-03-20T02:09:05.588Z,39.96
2023-03-20T02:11:43.389Z,39.61
2023-03-20T02:14:17.196Z,39.42
2023-03-20T02:16:57.035Z,39.90
2023-03-20T02:19:38.079Z,39.65
2023-03-20T02:22:29.931Z,39.71
2023-03-20T02:25:28.605Z,39.76
2023-03-20T02:28:15.548Z,39.01
2023-03-20T02:31:12.011Z,39.26
2023-03-20T02:37:46.427Z,38.64
2023-03-20T02:40:25.398Z,39.49
2023-03-20T02:43:02.233Z,39.90
2023-03-20T02:45:36.668Z,39.86
2023-03-20T02:48:20.570Z,39.55
2023-03-20T02:50:57.163Z,39.99
2023-03-20T02:53:36.150Z,39.53
2023-03-20T02:56:16.806Z,39.39
2023-03-20T02:58:55.234Z,39.32
2023-03-20T03:01:33.359Z,39.27
2023-03-20T03:04:13.306Z,39.15
2023-03-20T03:06:48.968Z,38.97
2023-03-20T03:09:25.255Z,38.80
2023-03-20T03:12:01.199Z,38.67
2023-03-20T03:14:39.778Z,38.79
2023-03-20T03:17:16.730Z,38.80
2023-03-20T03:23:59.156Z,39.33
2023-03-20T03:27:17.747Z,38.66
2023-03-20T03:30:27.872Z,38.30
2023-03-20T03:37:53.125Z,38.90
2023-03-20T03:41:30.395Z,38.04
2023-03-20T03:44:46.180Z,38.46
2023-03-20T03:48:03.386Z,38.74
2023-03-20T03:51:10.890Z,38.49
2023-03-20T03:54:47.133Z,38.34
2023-03-20T03:58:40.513Z,38.01
2023-03-20T04:01:22.495Z,38.09
2023-03-20T04:04:04.801Z,37.97
2023-03-20T04:06:37.749Z,38.41
2023-03-20T04:09:12.112Z,38.51
2023-03-20T04:11:54.449Z,38.55
2023-03-20T04:14:30.748Z,38.66
2023-03-20T04:17:04.726Z,38.41
2023-03-20T04:19:38.194Z,38.21
2023-03-20T04:22:11.254Z,38.09
2023-03-20T04:24:44.366Z,38.06
2023-03-20T04:27:21.125Z,38.03
2023-03-20T04:29:55.155Z,37.64
2023-03-20T04:32:53.792Z,37.47
2023-03-20T04:35:34.861Z,37.49
2023-03-20T04:38:12.777Z,37.77
2023-03-20T04:40:47.821Z,37.89
2023-03-20T04:43:20.873Z,38.07
2023-03-20T04:45:53.846Z,38.04
2023-03-20T04:48:27.976Z,37.78
2023-03-20T04:51:01.408Z,37.76
2023-03-20T04:53:36.025Z,37.83
2023-03-20T04:56:13.331Z,37.55
2023-03-20T04:58:46.373Z,37.29
2023-03-20T05:01:20.883Z,36.99
2023-03-20T05:03:55.889Z,36.93
2023-03-20T05:06:29.440Z,36.64
2023-03-20T05:09:04.156Z,36.59
2023-03-20T05:11:38.833Z,36.66
2023-03-20T05:14:14.484Z,36.47
2023-03-20T05:16:51.059Z,36.25
2023-03-20T05:19:31.755Z,36.21
2023-03-20T05:22:18.018Z,36.05
2023-03-20T05:24:52.908Z,35.83
2023-03-20T05:27:43.573Z,35.58
2023-03-20T05:30:36.511Z,35.60
2023-03-20T05:33:11.295Z,35.77
2023-03-20T05:38:35.080Z,35.69
2023-03-20T05:41:26.175Z,35.69
2023-03-20T05:44:09.057Z,35.47
2023-03-20T05:46:52.603Z,35.61
2023-03-20T05:49:43.248Z,35.55
2023-03-20T05:52:23.804Z,35.40
2023-03-20T05:55:11.122Z,35.21
2023-03-20T05:57:57.728Z,35.09
2023-03-20T06:00:35.240Z,34.99
2023-03-20T06:03:13.055Z,34.64
2023-03-20T06:05:53.562Z,34.47
2023-03-20T06:08:26.709Z,34.18
2023-03-20T06:11:00.566Z,34.12
2023-03-20T06:13:35.575Z,34.09
2023-03-20T06:16:12.209Z,34.15
2023-03-20T06:18:45.316Z,33.89
2023-03-20T06:21:18.333Z,33.76
2023-03-20T06:23:52.054Z,33.58
2023-03-20T06:26:26.720Z,33.22
2023-03-20T06:29:04.142Z,32.81
2023-03-20T06:31:38.083Z,32.32
2023-03-20T06:34:12.204Z,31.82
2023-03-20T06:36:48.662Z,31.47
2023-03-20T06:39:23.315Z,31.31
2023-03-20T06:41:57.420Z,31.31
2023-03-20T06:44:30.706Z,30.99
2023-03-20T06:47:11.552Z,30.78
2023-03-20T06:49:45.989Z,30.71
2023-03-20T06:52:22.595Z,30.57
2023-03-20T06:54:58.806Z,30.37
2023-03-20T06:57:33.927Z,30.45
2023-03-20T07:00:10.417Z,30.35
2023-03-20T07:02:43.870Z,30.01
2023-03-20T07:05:19.269Z,29.94
2023-03-20T07:07:53.101Z,30.04
2023-03-20T07:10:26.061Z,30.10
2023-03-20T07:12:58.968Z,30.10
2023-03-20T07:15:32.496Z,29.57
2023-03-20T07:18:06.213Z,28.54
2023-03-20T07:20:39.199Z,27.80
2023-03-20T07:23:12.340Z,27.28
2023-03-20T07:25:47.622Z,27.02
2023-03-20T07:28:21.610Z,26.27
2023-03-20T07:30:56.907Z,25.83
2023-03-20T07:33:30.275Z,25.04
2023-03-20T07:36:03.337Z,24.99
2023-03-20T07:38:36.743Z,25.19
2023-03-20T07:41:11.428Z,24.83
2023-03-20T07:43:47.859Z,24.86
2023-03-20T07:46:28.893Z,24.49
2023-03-20T07:49:02.117Z,24.13
2023-03-20T07:51:36.087Z,23.09
2023-03-20T07:54:09.095Z,22.05
2023-03-20T07:56:42.728Z,21.41
2023-03-20T07:59:19.032Z,21.14
2023-03-20T08:01:53.782Z,20.47
2023-03-20T08:04:26.823Z,20.08
2023-03-20T08:07:02.468Z,19.08
2023-03-20T08:09:35.877Z,18.98
2023-03-20T08:12:09.367Z,18.10
2023-03-20T08:14:43.901Z,17.65
2023-03-20T08:17:21.883Z,17.79
2023-03-20T08:19:54.233Z,17.70
2023-03-20T08:22:27.222Z,17.91
2023-03-20T08:25:00.162Z,17.37
2023-03-20T08:27:33.920Z,17.16
2023-03-20T08:30:09.045Z,17.30
2023-03-20T08:32:42.169Z,17.45
2023-03-20T08:35:31.825Z,17.39
2023-03-20T08:37:49.930Z,17.52
2023-03-20T08:40:22.951Z,18.02
2023-03-20T08:42:56.178Z,18.47
2023-03-20T08:45:29.324Z,18.99
2023-03-20T08:48:02.203Z,19.42
2023-03-20T08:50:35.575Z,19.73
2023-03-20T08:53:08.846Z,19.83
2023-03-20T08:55:41.899Z,19.58
2023-03-20T08:58:14.794Z,19.54
2023-03-20T09:00:48.700Z,19.20
2023-03-20T09:03:23.006Z,18.64
2023-03-20T09:05:55.869Z,17.76
2023-03-20T09:08:28.906Z,17.54
2023-03-20T09:11:02.040Z,17.49
2023-03-20T09:16:16.905Z,16.15
2023-03-20T09:18:50.212Z,15.60
2023-03-20T09:21:23.161Z,14.34
2023-03-20T09:23:56.253Z,14.38
2023-03-20T09:26:29.248Z,13.88
2023-03-20T09:29:02.868Z,14.24
2023-03-20T09:31:35.848Z,13.49
2023-03-20T09:34:08.873Z,13.50
2023-03-20T09:36:42.067Z,13.33
2023-03-20T09:39:14.968Z,13.59
2023-03-20T09:41:57.001Z,13.76
2023-03-20T09:44:35.789Z,13.76
2023-03-20T09:47:20.232Z,13.68
2023-03-20T09:49:57.151Z,14.37
2023-03-20T09:52:32.793Z,13.98
2023-03-20T09:55:09.549Z,14.58
2023-03-20T09:57:44.618Z,14.79
2023-03-20T10:00:22.461Z,14.29
2023-03-20T10:02:58.612Z,13.39
2023-03-20T10:05:35.053Z,13.16
2023-03-20T10:08:15.702Z,13.34
2023-03-20T10:10:52.718Z,13.64
2023-03-20T10:14:02.215Z,13.61
2023-03-20T10:16:43.744Z,13.73
2023-03-20T10:19:21.933Z,13.76
2023-03-20T10:21:57.858Z,13.68
2023-03-20T10:24:33.688Z,13.83
2023-03-20T10:27:09.840Z,13.46
2023-03-20T10:29:48.877Z,13.52
2023-03-20T10:32:26.456Z,13.52
2023-03-20T10:35:04.527Z,13.20
2023-03-20T10:37:45.764Z,15.40
2023-03-20T10:40:32.621Z,13.39
2023-03-20T10:43:08.901Z,13.28
2023-03-20T10:45:45.876Z,12.45
2023-03-20T10:48:24.095Z,12.18
2023-03-20T10:50:59.890Z,12.08
2023-03-20T10:53:38.088Z,12.34
2023-03-20T10:56:16.884Z,12.54
2023-03-20T10:58:52.258Z,12.10
2023-03-20T11:01:26.132Z,11.68
2023-03-20T11:03:59.637Z,10.96
2023-03-20T11:06:35.505Z,10.94
2023-03-20T11:09:19.356Z,11.06
2023-03-20T11:11:55.158Z,10.90
2023-03-20T11:14:30.985Z,11.45
2023-03-20T11:17:06.414Z,11.72
2023-03-20T11:19:41.109Z,11.42
2023-03-20T11:22:24.852Z,11.59
2023-03-20T11:25:01.717Z,11.23
2023-03-20T11:27:36.993Z,11.55
2023-03-20T11:30:15.898Z,11.53
2023-03-20T11:32:51.211Z,11.19
2023-03-20T11:35:31.194Z,11.87
2023-03-20T11:38:16.624Z,11.70
2023-03-20T11:40:52.020Z,11.76
2023-03-20T11:43:27.929Z,11.73
2023-03-20T11:46:04.633Z,11.67
2023-03-20T11:48:41.950Z,11.60
2023-03-20T11:51:18.115Z,11.42
2023-03-20T11:54:03.715Z,11.90
2023-03-20T11:56:37.976Z,11.53
2023-03-20T11:59:15.903Z,10.81
2023-03-20T12:01:52.819Z,11.27
2023-03-20T12:04:31.509Z,11.49
2023-03-20T12:07:09.715Z,11.41
2023-03-20T12:09:46.314Z,11.26
2023-03-20T12:15:10.601Z,11.53
2023-03-20T12:17:47.879Z,11.50
2023-03-20T12:20:28.763Z,11.42
2023-03-20T12:23:15.572Z,11.89
2023-03-20T12:25:55.060Z,12.00
2023-03-20T12:28:31.789Z,12.20
2023-03-20T12:31:10.838Z,12.23
2023-03-20T12:33:47.873Z,12.01
2023-03-20T12:36:25.277Z,12.27
2023-03-20T12:38:58.438Z,12.57
2023-03-20T12:41:34.597Z,12.95
2023-03-20T12:44:16.924Z,12.46
2023-03-20T12:46:55.262Z,12.33
2023-03-20T12:49:36.359Z,12.32
2023-03-20T12:52:14.851Z,12.54
2023-03-20T12:55:01.643Z,12.43
2023-03-20T12:57:39.220Z,12.66
2023-03-20T13:00:20.202Z,12.94
2023-03-20T13:02:59.589Z,12.81
2023-03-20T13:05:39.953Z,12.70
2023-03-20T13:08:42.361Z,13.04
2023-03-20T13:11:20.693Z,13.61
2023-03-20T13:13:56.704Z,14.54
2023-03-20T13:16:38.473Z,14.68
2023-03-20T13:19:15.448Z,14.87
2023-03-20T13:21:53.177Z,15.06
2023-03-20T13:27:38.521Z,15.58
2023-03-20T13:30:15.780Z,15.22
2023-03-20T13:32:54.536Z,15.73
2023-03-20T13:35:36.048Z,15.92
2023-03-20T13:38:15.899Z,15.77
2023-03-20T13:40:51.455Z,15.58
2023-03-20T13:43:30.947Z,15.66
2023-03-20T13:46:08.980Z,15.88
2023-03-20T13:48:44.146Z,16.11
2023-03-20T13:51:26.170Z,16.78
2023-03-20T13:54:05.666Z,16.96
2023-03-20T13:56:44.453Z,17.48
2023-03-20T13:59:49.826Z,17.65
2023-03-20T14:02:31.163Z,17.64
2023-03-20T14:05:08.856Z,17.90
2023-03-20T14:07:42.430Z,18.22
2023-03-20T14:13:22.377Z,19.82
2023-03-20T14:15:58.549Z,19.91
2023-03-20T14:18:32.912Z,20.14
2023-03-20T14:21:11.021Z,20.32
2023-03-20T14:23:47.274Z,20.57
2023-03-20T14:26:25.942Z,20.92
2023-03-20T14:29:02.893Z,21.26
2023-03-20T14:31:38.631Z,21.49
2023-03-20T14:34:18.389Z,21.59
2023-03-20T14:37:01.584Z,21.96
2023-03-20T14:39:44.859Z,22.24
2023-03-20T14:42:30.882Z,22.53
2023-03-20T14:45:18.812Z,22.82
2023-03-20T14:47:56.194Z,22.81
2023-03-20T14:50:32.596Z,22.83
2023-03-20T14:53:15.829Z,22.89
2023-03-20T14:56:02.203Z,23.05
2023-03-20T14:58:50.368Z,23.44
2023-03-20T15:04:40.664Z,23.29
2023-03-20T15:07:17.177Z,23.95
2023-03-20T15:09:52.876Z,24.04
2023-03-20T15:12:28.742Z,24.15
2023-03-20T15:15:03.533Z,24.13
2023-03-20T15:17:40.707Z,24.31
2023-03-20T15:20:17.619Z,24.32
2023-03-20T15:22:52.709Z,24.33
2023-03-20T15:25:28.343Z,24.31
2023-03-20T15:28:01.523Z,24.44
2023-03-20T15:30:37.184Z,24.60
2023-03-20T15:33:15.076Z,24.67
2023-03-20T15:35:48.510Z,24.81
2023-03-20T15:38:23.121Z,24.86
2023-03-20T15:40:56.393Z,25.00
2023-03-20T15:43:29.778Z,25.10
2023-03-20T15:46:17.485Z,25.29
2023-03-20T15:48:39.075Z,25.44
2023-03-20T15:51:13.562Z,25.57
2023-03-20T15:53:49.353Z,25.53
2023-03-20T15:56:25.315Z,25.67
2023-03-20T15:59:00.620Z,25.88
2023-03-20T16:01:35.636Z,25.97
2023-03-20T16:04:10.088Z,26.06
2023-03-20T16:06:49.544Z,26.05
2023-03-20T16:09:22.858Z,26.08
2023-03-20T16:12:00.901Z,26.13
2023-03-20T16:14:36.558Z,26.55
2023-03-20T16:17:09.805Z,26.99
2023-03-20T16:19:43.303Z,26.91
2023-03-20T16:22:23.742Z,27.03
2023-03-20T16:24:59.959Z,27.09
2023-03-20T16:27:35.965Z,27.59
2023-03-20T16:30:15.389Z,27.51
2023-03-20T16:32:51.392Z,27.99
2023-03-20T16:35:28.358Z,28.52
2023-03-20T16:38:03.352Z,29.19
2023-03-20T16:40:40.600Z,29.28
2023-03-20T16:43:20.666Z,29.62
2023-03-20T16:45:56.482Z,29.51
2023-03-20T16:48:33.222Z,30.22
2023-03-20T16:51:12.448Z,30.43
2023-03-20T16:53:48.936Z,30.24
2023-03-20T16:56:28.507Z,30.37
2023-03-20T16:59:03.009Z,30.29
2023-03-20T17:01:43.278Z,30.74
2023-03-20T17:04:23.020Z,31.22
2023-03-20T17:06:58.217Z,31.25
2023-03-20T17:09:35.052Z,30.97
2023-03-20T17:12:16.353Z,31.04
2023-03-20T17:14:49.756Z,31.30
2023-03-20T17:17:25.144Z,31.54
2023-03-20T17:20:02.876Z,31.67
2023-03-20T17:22:38.861Z,31.49
2023-03-20T17:25:13.500Z,31.29
2023-03-20T17:27:48.370Z,31.48
2023-03-20T17:30:24.004Z,31.45
2023-03-20T17:32:57.170Z,31.85
2023-03-20T17:35:30.412Z,31.80
2023-03-20T17:38:03.430Z,31.58
2023-03-20T17:40:36.548Z,31.59
2023-03-20T17:43:13.129Z,32.02
2023-03-20T17:45:47.641Z,32.09
2023-03-20T17:48:25.847Z,32.27
2023-03-20T17:51:02.559Z,32.63
2023-03-20T17:53:35.565Z,32.43
2023-03-20T17:56:15.042Z,32.66
2023-03-20T17:58:47.887Z,32.86
2023-03-20T18:01:20.995Z,32.68
2023-03-20T18:03:54.285Z,33.02
2023-03-20T18:06:30.564Z,32.91
2023-03-20T18:09:05.042Z,33.38
2023-03-20T18:11:38.191Z,33.26
2023-03-20T18:14:12.487Z,33.28
2023-03-20T18:16:45.507Z,33.44
2023-03-20T18:19:25.812Z,33.80
2023-03-20T18:21:59.788Z,33.76
2023-03-20T18:24:32.915Z,33.81
2023-03-20T18:27:06.116Z,34.04
2023-03-20T18:29:39.213Z,34.31
2023-03-20T18:32:12.286Z,34.80
2023-03-20T18:35:20.503Z,34.72
2023-03-20T18:37:53.093Z,34.84
2023-03-20T18:40:28.263Z,34.63
2023-03-20T18:43:01.414Z,34.52
2023-03-20T18:45:40.265Z,34.42
2023-03-20T18:51:30.891Z,34.76
2023-03-20T18:54:06.293Z,34.44
2023-03-20T18:56:40.801Z,34.39
2023-03-20T18:59:19.759Z,34.26
2023-03-20T19:01:53.438Z,34.23
2023-03-20T19:04:27.244Z,34.32
2023-03-20T19:07:00.311Z,34.63
2023-03-20T19:09:33.807Z,34.44
2023-03-20T19:12:11.704Z,34.75
2023-03-20T19:14:45.391Z,34.79
2023-03-20T19:17:20.716Z,34.83
2023-03-20T19:19:56.093Z,34.63
2023-03-20T19:22:31.692Z,34.72
2023-03-20T19:25:07.108Z,34.50
2023-03-20T19:27:43.886Z,34.85
2023-03-20T19:30:33.508Z,34.85
2023-03-20T19:33:08.403Z,35.20
2023-03-20T19:36:02.236Z,34.94
2023-03-20T19:38:23.786Z,34.86
2023-03-20T19:40:57.981Z,34.88
2023-03-20T19:43:32.369Z,34.88
2023-03-20T19:46:09.657Z,34.80
2023-03-20T19:48:50.604Z,35.14
2023-03-20T19:51:21.628Z,35.47
2023-03-20T19:53:55.834Z,35.42
2023-03-20T19:56:28.890Z,35.46
2023-03-20T19:59:03.183Z,35.70
2023-03-20T20:01:38.966Z,35.87
2023-03-20T20:04:11.929Z,36.17
2023-03-20T20:06:47.508Z,35.93
2023-03-20T20:09:20.658Z,36.18
2023-03-20T20:11:53.702Z,35.75
2023-03-20T20:14:26.818Z,35.73
2023-03-20T20:16:59.902Z,35.96
2023-03-20T20:19:32.820Z,35.71
2023-03-20T20:22:24.979Z,36.24
2023-03-20T20:24:41.512Z,36.45
2023-03-20T20:27:17.448Z,35.98
2023-03-20T20:29:51.614Z,36.00
2023-03-20T20:32:26.986Z,36.00
2023-03-20T20:38:21.217Z,36.14
2023-03-20T20:40:15.655Z,35.88
2023-03-20T20:42:50.586Z,35.88
2023-03-20T20:45:26.118Z,35.85
2023-03-20T20:47:59.174Z,36.06
2023-03-20T20:50:36.099Z,36.30
2023-03-20T20:53:09.354Z,36.35
2023-03-20T20:55:42.420Z,36.53
2023-03-20T20:58:15.607Z,36.54
2023-03-20T21:00:54.008Z,36.30
2023-03-20T21:03:24.581Z,36.34
2023-03-20T21:05:57.719Z,36.82
2023-03-20T21:08:30.819Z,37.00
2023-03-20T21:11:03.851Z,36.78
2023-03-20T21:13:38.214Z,36.59
2023-03-20T21:16:13.163Z,36.94
2023-03-20T21:18:46.552Z,36.89
2023-03-20T21:21:19.514Z,36.49
2023-03-20T21:23:55.563Z,36.53
2023-03-20T21:26:28.692Z,36.45
2023-03-20T21:29:02.073Z,36.60
2023-03-20T21:31:35.264Z,36.81
2023-03-20T21:34:08.332Z,36.95
2023-03-20T21:36:41.320Z,36.86
2023-03-20T21:39:15.509Z,36.53
2023-03-20T21:41:48.887Z,36.68
2023-03-20T21:44:56.030Z,36.76
2023-03-20T21:47:55.693Z,36.83
2023-03-20T21:52:59.902Z,37.13
2023-03-20T21:57:55.727Z,36.98
2023-03-20T22:00:47.762Z,37.16
2023-03-20T22:02:35.372Z,37.02
2023-03-20T22:05:48.456Z,37.30
2023-03-20T22:08:48.624Z,37.56
2023-03-20T22:21:27.400Z,38.29
2023-03-20T22:24:05.816Z,37.83
2023-03-20T22:26:58.362Z,37.66
2023-03-20T22:29:17.748Z,37.54
2023-03-20T22:34:30.832Z,37.24
2023-03-20T22:37:16.394Z,37.27
2023-03-20T22:39:36.604Z,37.14
2023-03-20T22:42:28.665Z,37.04
2023-03-20T22:44:56.806Z,36.80
2023-03-20T22:46:47.557Z,37.03
2023-03-20T22:49:20.885Z,37.18
2023-03-20T22:52:11.706Z,37.29
2023-03-20T22:54:30.161Z,37.26
2023-03-20T22:57:03.635Z,37.20
2023-03-20T22:59:36.558Z,37.20
2023-03-20T23:02:11.013Z,37.08
2023-03-20T23:04:44.212Z,36.99
2023-03-20T23:07:17.375Z,37.14
2023-03-20T23:09:50.978Z,37.09
2023-03-20T23:12:23.945Z,37.35
2023-03-20T23:14:58.049Z,37.43
2023-03-20T23:17:33.827Z,37.69
2023-03-20T23:20:15.310Z,37.53
2023-03-20T23:22:46.712Z,37.77
2023-03-20T23:25:37.876Z,37.96
2023-03-20T23:27:55.660Z,37.79
2023-03-20T23:30:37.852Z,37.82
2023-03-20T23:33:03.874Z,38.59
2023-03-20T23:35:36.795Z,38.75
2023-03-20T23:38:09.838Z,38.68
2023-03-20T23:40:45.740Z,38.52
2023-03-20T23:43:19.041Z,38.54
2023-03-20T23:45:52.068Z,38.58
2023-03-20T23:48:25.276Z,38.88
2023-03-20T23:50:58.207Z,38.85
2023-03-20T23:53:38.880Z,39.17
2023-03-20T23:56:14.433Z,39.01
2023-03-20T23:58:58.246Z,39.27
